Time;durP1;ratioP1;P1;durP2;ratioP2;P2;SDS_P1;SDS_P2;PMS_P1;PMS_P2;Temp;Humidity;BMP_temperature;BMP_pressure;BME280_temperature;BME280_humidity;BME280_pressure;Samples;Min_cycle;Max_cycle;Signal;HPM_P1;HPM_P2
2023/04/19 00:02:12;;;;;;;7.10;5.30;;;4.40;99.90;;;;;;5012845;28;20235;-77
2023/04/19 00:04:40;;;;;;;9.50;5.47;;;4.40;99.90;;;;;;5010193;28;20223;-77
2023/04/19 00:07:07;;;;;;;8.77;5.47;;;4.30;99.90;;;;;;5008695;28;20597;-78
2023/04/19 00:09:34;;;;;;;9.77;5.53;;;4.30;99.90;;;;;;5007657;28;20235;-77
2023/04/19 00:12:01;;;;;;;10.17;5.70;;;4.30;99.90;;;;;;5005411;28;20285;-77
2023/04/19 00:14:28;;;;;;;10.70;5.67;;;4.30;99.90;;;;;;5007702;28;20281;-77
2023/04/19 00:16:55;;;;;;;10.63;5.20;;;4.20;99.90;;;;;;5006230;28;20227;-77
2023/04/19 00:19:22;;;;;;;7.37;5.20;;;4.20;99.90;;;;;;5005131;28;20305;-77
2023/04/19 00:21:50;;;;;;;7.37;4.80;;;4.20;99.90;;;;;;5004639;28;20320;-77
2023/04/19 00:24:18;;;;;;;10.23;5.63;;;4.20;99.90;;;;;;5000234;28;20256;-77
2023/04/19 00:26:45;;;;;;;8.23;5.07;;;4.10;99.90;;;;;;5000795;28;20237;-77
2023/04/19 00:29:11;;;;;;;7.30;5.10;;;4.10;99.90;;;;;;5002108;28;20233;-77
2023/04/19 00:31:39;;;;;;;7.60;4.60;;;4.10;99.90;;;;;;5005181;28;20257;-77
2023/04/19 00:34:06;;;;;;;7.63;4.93;;;4.20;99.90;;;;;;4997943;28;20216;-78
2023/04/19 00:36:33;;;;;;;8.77;4.53;;;4.10;99.90;;;;;;4999261;28;20230;-78
2023/04/19 00:39:01;;;;;;;7.63;4.20;;;4.10;99.90;;;;;;5003634;28;20221;-77
2023/04/19 00:41:27;;;;;;;6.00;4.80;;;4.10;99.90;;;;;;5020444;28;20230;-77
2023/04/19 00:43:54;;;;;;;7.90;4.47;;;4.10;99.90;;;;;;5000616;28;20239;-78
2023/04/19 00:46:21;;;;;;;6.93;4.43;;;4.10;99.90;;;;;;4996722;28;20904;-78
2023/04/19 00:48:49;;;;;;;6.40;4.53;;;4.10;99.90;;;;;;5004037;28;20340;-77
2023/04/19 00:51:16;;;;;;;7.97;4.40;;;4.10;99.90;;;;;;5004604;28;20219;-78
2023/04/19 00:53:43;;;;;;;6.17;4.50;;;4.10;99.90;;;;;;4997739;28;20222;-77
2023/04/19 00:56:14;;;;;;;5.67;3.47;;;4.10;99.90;;;;;;5002246;28;20312;-77
2023/04/19 00:58:41;;;;;;;6.80;4.20;;;4.10;99.90;;;;;;4998629;28;20244;-77
2023/04/19 01:01:09;;;;;;;7.67;4.13;;;4.10;99.90;;;;;;5000803;28;20229;-77
2023/04/19 01:03:36;;;;;;;7.53;4.33;;;4.00;99.90;;;;;;5000254;28;20223;-77
2023/04/19 01:06:03;;;;;;;6.80;4.20;;;4.00;99.90;;;;;;4992844;28;20233;-77
2023/04/19 01:08:30;;;;;;;5.63;3.90;;;4.00;99.90;;;;;;5003656;28;20218;-77
2023/04/19 01:10:56;;;;;;;8.03;4.17;;;4.00;99.90;;;;;;5002058;28;20284;-77
2023/04/19 01:13:26;;;;;;;6.83;4.43;;;4.00;99.90;;;;;;5002877;28;20778;-77
2023/04/19 01:15:54;;;;;;;6.57;3.80;;;4.00;99.90;;;;;;5004869;28;20229;-77
2023/04/19 01:18:23;;;;;;;6.90;4.27;;;4.00;99.90;;;;;;5009715;28;20228;-77
2023/04/19 01:20:50;;;;;;;6.13;3.97;;;4.00;99.90;;;;;;5009224;28;20223;-77
2023/04/19 01:23:18;;;;;;;6.10;3.70;;;4.00;99.90;;;;;;5005772;28;20251;-78
2023/04/19 01:25:45;;;;;;;6.30;3.33;;;4.00;99.90;;;;;;5006085;28;20235;-78
2023/04/19 01:28:11;;;;;;;5.13;3.77;;;4.00;99.90;;;;;;5008123;28;20236;-77
2023/04/19 01:30:38;;;;;;;6.07;3.67;;;4.00;99.90;;;;;;5007645;28;20697;-77
2023/04/19 01:33:05;;;;;;;5.53;3.70;;;4.00;99.90;;;;;;5003956;28;20220;-77
2023/04/19 01:35:32;;;;;;;5.30;3.90;;;4.00;99.90;;;;;;5007442;28;20309;-77
2023/04/19 01:37:59;;;;;;;7.97;3.77;;;4.00;99.90;;;;;;5005288;28;20279;-77
2023/04/19 01:40:28;;;;;;;9.17;4.30;;;4.00;99.90;;;;;;4999165;28;20256;-77
2023/04/19 01:42:54;;;;;;;4.80;3.73;;;4.00;99.90;;;;;;5009327;28;20310;-77
2023/04/19 01:45:21;;;;;;;4.33;3.90;;;4.00;99.90;;;;;;5001520;28;20226;-77
2023/04/19 01:47:51;;;;;;;5.87;4.03;;;4.00;99.90;;;;;;5000485;28;20240;-77
2023/04/19 01:50:18;;;;;;;4.90;3.50;;;4.00;99.90;;;;;;5006923;28;20232;-78
2023/04/19 01:52:45;;;;;;;7.33;4.07;;;3.90;99.90;;;;;;4999312;28;20322;-78
2023/04/19 01:55:12;;;;;;;7.33;4.07;;;3.90;99.90;;;;;;5017562;28;20229;-78
2023/04/19 01:57:40;;;;;;;7.83;4.60;;;3.90;99.90;;;;;;5009588;28;20639;-78
2023/04/19 02:00:09;;;;;;;5.27;3.90;;;3.90;99.90;;;;;;5004199;28;20223;-77
2023/04/19 02:02:41;;;;;;;6.67;3.87;;;3.80;99.90;;;;;;5010488;28;20226;-78
2023/04/19 02:05:09;;;;;;;6.00;4.10;;;3.80;99.90;;;;;;5006172;28;21377;-78
2023/04/19 02:07:36;;;;;;;6.33;3.87;;;3.70;99.90;;;;;;5009899;28;20257;-78
2023/04/19 02:10:03;;;;;;;7.13;4.03;;;3.70;99.90;;;;;;5003121;28;20236;-78
2023/04/19 02:12:30;;;;;;;5.53;4.13;;;3.70;99.90;;;;;;5002129;28;20229;-77
2023/04/19 02:14:58;;;;;;;6.43;4.10;;;3.70;99.90;;;;;;4999992;28;20230;-77
2023/04/19 02:17:34;;;;;;;6.30;4.13;;;3.60;99.90;;;;;;5004870;28;20950;-76
2023/04/19 02:20:03;;;;;;;7.53;4.37;;;3.60;99.90;;;;;;5006250;28;20232;-77
2023/04/19 02:22:30;;;;;;;6.40;4.40;;;3.60;99.90;;;;;;4999871;28;20231;-77
2023/04/19 02:24:56;;;;;;;8.47;4.50;;;3.60;99.90;;;;;;4997085;28;20765;-77
2023/04/19 02:27:29;;;;;;;6.53;4.30;;;3.60;99.90;;;;;;4998421;28;20685;-77
2023/04/19 02:29:57;;;;;;;5.47;4.43;;;3.60;99.90;;;;;;5004553;28;20307;-76
2023/04/19 02:32:24;;;;;;;8.57;4.40;;;3.60;99.90;;;;;;4999171;28;20245;-76
2023/04/19 02:34:51;;;;;;;6.10;4.17;;;3.50;99.90;;;;;;5018004;28;20755;-77
2023/04/19 02:37:18;;;;;;;8.07;4.63;;;3.50;99.90;;;;;;5014018;28;20300;-77
2023/04/19 02:39:45;;;;;;;7.13;4.50;;;3.50;99.90;;;;;;4997562;28;20226;-77
2023/04/19 02:42:12;;;;;;;5.37;4.30;;;3.50;99.90;;;;;;4996005;28;20219;-77
2023/04/19 02:44:39;;;;;;;8.77;4.13;;;3.50;99.90;;;;;;5000215;28;20229;-77
2023/04/19 02:47:07;;;;;;;6.70;4.73;;;3.50;99.90;;;;;;4998981;28;20308;-77
2023/04/19 02:49:36;;;;;;;6.97;4.20;;;3.50;99.90;;;;;;5000935;28;22033;-75
2023/04/19 02:52:04;;;;;;;10.30;4.63;;;3.50;99.90;;;;;;5013746;28;20226;-77
2023/04/19 02:54:33;;;;;;;9.57;4.37;;;3.50;99.90;;;;;;4994727;28;20238;-77
2023/04/19 02:57:01;;;;;;;8.60;4.63;;;3.40;99.90;;;;;;4998126;28;20242;-78
2023/04/19 02:59:28;;;;;;;7.97;4.60;;;3.40;99.90;;;;;;4993392;28;20893;-77
2023/04/19 03:01:57;;;;;;;8.37;4.23;;;3.40;99.90;;;;;;4995785;28;20285;-77
2023/04/19 03:04:27;;;;;;;6.73;4.17;;;3.40;99.90;;;;;;4992099;28;20297;-78
2023/04/19 03:06:55;;;;;;;7.07;4.03;;;3.40;99.90;;;;;;4999576;28;20217;-77
2023/04/19 03:09:22;;;;;;;6.83;4.37;;;3.40;99.90;;;;;;4999096;28;20327;-76
2023/04/19 03:11:48;;;;;;;6.47;4.17;;;3.40;99.90;;;;;;4989524;28;20234;-77
2023/04/19 03:14:17;;;;;;;6.80;3.87;;;3.30;99.90;;;;;;4994097;28;20222;-77
2023/04/19 03:16:44;;;;;;;5.90;3.70;;;3.30;99.90;;;;;;4998114;28;20218;-77
2023/04/19 03:19:10;;;;;;;6.97;3.73;;;3.30;99.90;;;;;;4994645;28;20232;-77
2023/04/19 03:21:45;;;;;;;6.83;4.20;;;3.30;99.90;;;;;;5002072;28;20893;-77
2023/04/19 03:24:12;;;;;;;6.63;3.53;;;3.30;99.90;;;;;;4999067;28;20623;-78
2023/04/19 03:26:43;;;;;;;6.43;3.93;;;3.30;99.90;;;;;;4998533;28;21021;-77
2023/04/19 03:29:11;;;;;;;6.37;3.37;;;3.30;99.90;;;;;;4999455;28;20293;-77
2023/04/19 03:31:41;;;;;;;6.10;3.83;;;3.30;99.90;;;;;;4999568;28;20289;-78
2023/04/19 03:34:11;;;;;;;4.73;3.63;;;3.30;99.90;;;;;;5002190;28;20211;-79
2023/04/19 03:36:42;;;;;;;7.17;3.77;;;3.30;99.90;;;;;;5001273;28;20221;-77
2023/04/19 03:39:10;;;;;;;9.60;4.17;;;3.30;99.90;;;;;;4995888;28;20602;-78
2023/04/19 03:41:40;;;;;;;5.57;3.80;;;3.20;99.90;;;;;;5004809;28;20228;-78
2023/04/19 03:44:35;;;;;;;5.70;3.40;;;3.20;99.90;;;;;;5002334;28;20294;-78
2023/04/19 03:47:04;;;;;;;6.23;4.00;;;3.20;99.90;;;;;;5000540;28;20228;-77
2023/04/19 03:49:35;;;;;;;6.37;3.67;;;3.10;99.90;;;;;;4998574;28;20226;-78
2023/04/19 03:52:04;;;;;;;5.17;3.23;;;3.20;99.90;;;;;;5000871;28;20644;-78
2023/04/19 03:54:34;;;;;;;6.37;3.70;;;3.10;99.90;;;;;;5005022;28;20232;-78
2023/04/19 03:57:03;;;;;;;4.77;3.33;;;3.10;99.90;;;;;;5003666;28;20289;-77
2023/04/19 03:59:30;;;;;;;7.43;3.70;;;3.00;99.90;;;;;;5005359;28;20883;-78
2023/04/19 04:01:58;;;;;;;7.83;3.60;;;3.00;99.90;;;;;;5004930;28;20233;-78
2023/04/19 04:04:25;;;;;;;4.60;3.43;;;3.00;99.90;;;;;;4997213;28;20234;-78
2023/04/19 04:06:52;;;;;;;6.13;4.30;;;2.90;99.90;;;;;;5000110;28;20222;-78
2023/04/19 04:09:18;;;;;;;6.87;3.87;;;2.90;99.90;;;;;;5003144;28;20649;-77
2023/04/19 04:11:46;;;;;;;44.93;38.33;;;2.90;99.90;;;;;;4999183;28;20248;-76
2023/04/19 04:14:14;;;;;;;18.03;12.00;;;2.90;99.90;;;;;;5001815;28;20227;-77
2023/04/19 04:16:41;;;;;;;8.53;5.03;;;2.80;99.90;;;;;;5000969;28;20780;-77
2023/04/19 04:19:08;;;;;;;6.27;4.37;;;2.80;99.90;;;;;;4998769;28;20263;-77
2023/04/19 04:21:39;;;;;;;7.07;4.20;;;2.80;99.90;;;;;;5002210;28;20229;-77
2023/04/19 04:24:08;;;;;;;6.70;3.80;;;2.80;99.90;;;;;;5004805;28;20229;-78
2023/04/19 04:26:41;;;;;;;5.73;3.70;;;2.80;99.90;;;;;;4993105;28;20609;-81
2023/04/19 04:29:32;;;;;;;6.63;5.50;;;2.80;99.90;;;;;;5000460;28;20238;-79
2023/04/19 04:32:01;;;;;;;10.57;5.60;;;2.80;99.90;;;;;;5008008;28;20327;-78
2023/04/19 04:34:34;;;;;;;6.37;4.00;;;2.80;99.90;;;;;;5002197;28;20304;-78
2023/04/19 04:37:07;;;;;;;6.27;3.87;;;2.80;99.90;;;;;;5004114;28;20840;-81
2023/04/19 04:39:38;;;;;;;4.97;3.27;;;2.80;99.90;;;;;;5002334;28;20276;-79
2023/04/19 04:42:06;;;;;;;6.60;3.70;;;2.90;99.90;;;;;;4999531;28;20235;-79
2023/04/19 04:44:35;;;;;;;4.53;3.43;;;3.00;99.90;;;;;;5008575;28;20227;-80
2023/04/19 04:47:02;;;;;;;5.07;3.83;;;3.00;99.90;;;;;;5001916;28;20301;-80
2023/04/19 04:49:33;;;;;;;33.13;18.70;;;3.10;99.90;;;;;;5001446;28;20252;-80
2023/04/19 04:52:00;;;;;;;11.00;6.43;;;3.10;99.90;;;;;;5004053;28;20229;-81
2023/04/19 04:54:31;;;;;;;15.90;9.60;;;3.30;99.90;;;;;;5000978;28;20230;-79
2023/04/19 04:56:59;;;;;;;16.93;9.60;;;3.40;99.90;;;;;;4991996;28;20436;-80
2023/04/19 04:59:30;;;;;;;19.00;11.87;;;3.50;99.90;;;;;;5000688;28;20433;-80
2023/04/19 05:02:00;;;;;;;7.90;5.70;;;3.60;99.90;;;;;;4998602;28;20454;-80
2023/04/19 05:04:28;;;;;;;7.03;4.33;;;3.70;99.90;;;;;;5020009;28;20233;-81
2023/04/19 05:06:55;;;;;;;5.23;3.83;;;3.80;99.90;;;;;;5002609;28;20310;-79
2023/04/19 05:09:25;;;;;;;5.27;3.07;;;3.90;99.90;;;;;;4997553;28;20414;-80
2023/04/19 05:11:53;;;;;;;6.83;5.07;;;4.00;99.90;;;;;;4996175;28;20226;-79
2023/04/19 05:14:20;;;;;;;6.83;4.00;;;4.10;99.90;;;;;;4998777;28;20226;-77
2023/04/19 05:16:46;;;;;;;16.13;12.77;;;4.10;99.90;;;;;;4998384;28;20214;-78
2023/04/19 05:19:15;;;;;;;4.97;3.30;;;4.20;99.90;;;;;;4997047;28;20268;-77
2023/04/19 05:21:48;;;;;;;7.00;4.33;;;4.30;99.90;;;;;;4993739;28;20223;-78
2023/04/19 05:24:15;;;;;;;5.40;3.77;;;4.50;99.90;;;;;;4997896;28;20229;-76
2023/04/19 05:26:42;;;;;;;7.73;5.83;;;4.50;99.90;;;;;;5010506;28;20222;-77
2023/04/19 05:29:10;;;;;;;7.77;3.77;;;4.50;99.90;;;;;;4994111;28;20426;-76
2023/04/19 05:31:45;;;;;;;5.60;4.63;;;4.60;99.90;;;;;;4996778;28;20248;-77
2023/04/19 05:34:25;;;;;;;5.40;3.03;;;4.60;99.90;;;;;;4994411;28;20234;-77
2023/04/19 05:36:53;;;;;;;3.03;2.43;;;4.60;99.90;;;;;;4996135;28;20224;-77
2023/04/19 05:39:20;;;;;;;4.33;2.80;;;4.60;99.90;;;;;;4996677;28;20237;-77
2023/04/19 05:41:47;;;;;;;5.20;2.77;;;4.60;99.90;;;;;;4995563;28;20733;-77
2023/04/19 05:44:14;;;;;;;4.23;2.40;;;4.60;99.90;;;;;;4996208;28;20237;-77
2023/04/19 05:46:40;;;;;;;2.53;2.00;;;4.60;99.90;;;;;;5016687;28;20313;-76
2023/04/19 05:49:10;;;;;;;3.10;2.03;;;4.60;99.90;;;;;;5001583;28;20785;-77
2023/04/19 05:51:41;;;;;;;3.07;1.80;;;4.70;99.90;;;;;;4995856;28;20229;-77
2023/04/19 05:54:16;;;;;;;5.57;2.30;;;4.70;99.90;;;;;;4995658;28;20255;-77
2023/04/19 05:56:45;;;;;;;2.97;1.73;;;4.70;99.90;;;;;;4994329;28;20859;-77
2023/04/19 05:59:14;;;;;;;4.30;1.90;;;4.80;99.90;;;;;;4995914;28;20230;-77
2023/04/19 06:01:41;;;;;;;3.90;1.70;;;4.80;99.90;;;;;;4988553;28;20260;-77
2023/04/19 06:04:07;;;;;;;3.07;1.80;;;4.80;99.90;;;;;;5000196;28;20236;-77
2023/04/19 06:06:36;;;;;;;2.87;1.60;;;5.00;99.90;;;;;;5004775;28;20267;-77
2023/04/19 06:09:05;;;;;;;3.00;1.40;;;5.10;99.90;;;;;;5004896;28;20229;-77
2023/04/19 06:11:32;;;;;;;3.07;1.50;;;5.20;99.90;;;;;;5004512;28;20231;-77
2023/04/19 06:13:59;;;;;;;3.17;1.63;;;5.30;99.90;;;;;;5009950;28;20224;-78
2023/04/19 06:16:26;;;;;;;2.13;1.20;;;5.40;99.90;;;;;;5004470;28;20253;-77
2023/04/19 06:18:53;;;;;;;3.53;1.70;;;5.50;99.90;;;;;;5007402;28;20229;-77
2023/04/19 06:21:19;;;;;;;3.37;1.50;;;5.70;99.90;;;;;;5004174;28;20226;-77
2023/04/19 06:23:46;;;;;;;2.63;1.13;;;5.80;99.90;;;;;;5010589;28;20280;-78
2023/04/19 06:26:14;;;;;;;2.77;1.47;;;6.00;99.90;;;;;;5006919;28;20742;-77
2023/04/19 06:28:41;;;;;;;2.43;1.30;;;6.20;99.90;;;;;;5010889;28;20227;-77
2023/04/19 06:31:07;;;;;;;3.03;1.90;;;6.40;99.90;;;;;;5006018;28;20309;-78
2023/04/19 06:33:34;;;;;;;2.70;1.20;;;6.50;99.90;;;;;;5003783;28;20817;-78
2023/04/19 06:36:00;;;;;;;6.10;1.23;;;6.70;99.90;;;;;;5006784;28;20216;-77
2023/04/19 06:38:27;;;;;;;3.03;1.10;;;6.90;99.90;;;;;;4999804;28;20727;-78
2023/04/19 06:40:54;;;;;;;4.93;1.10;;;7.10;99.90;;;;;;5009695;28;20214;-77
2023/04/19 06:43:22;;;;;;;1.70;1.07;;;7.20;99.90;;;;;;5000866;28;20242;-77
2023/04/19 06:45:48;;;;;;;1.57;0.97;;;7.30;99.20;;;;;;5007790;28;20231;-78
2023/04/19 06:48:15;;;;;;;3.97;1.50;;;7.40;99.60;;;;;;5004396;28;20238;-77
2023/04/19 06:50:42;;;;;;;1.30;1.10;;;7.50;99.60;;;;;;5008225;28;20737;-77
2023/04/19 06:53:08;;;;;;;2.27;0.90;;;7.50;98.50;;;;;;5006718;28;20301;-78
2023/04/19 06:55:35;;;;;;;1.33;1.00;;;7.50;99.30;;;;;;5010226;28;20319;-77
2023/04/19 06:58:02;;;;;;;1.33;0.97;;;7.60;98.80;;;;;;5007212;28;20227;-77
2023/04/19 07:00:30;;;;;;;1.60;1.17;;;7.60;98.10;;;;;;5007911;28;20223;-77
2023/04/19 07:02:58;;;;;;;1.17;0.90;;;7.60;98.40;;;;;;5008398;28;20286;-77
2023/04/19 07:05:25;;;;;;;1.73;1.03;;;7.60;98.20;;;;;;5005912;28;20304;-78
2023/04/19 07:07:51;;;;;;;2.83;1.37;;;7.60;98.40;;;;;;5009839;28;20228;-77
2023/04/19 07:10:18;;;;;;;3.20;1.30;;;7.60;98.10;;;;;;5003205;28;20233;-77
2023/04/19 07:12:45;;;;;;;1.80;0.83;;;7.60;98.00;;;;;;5008184;28;20228;-77
2023/04/19 07:15:12;;;;;;;1.73;1.10;;;7.60;98.40;;;;;;5008289;28;20315;-77
2023/04/19 07:17:40;;;;;;;2.03;1.07;;;7.60;98.20;;;;;;5004804;28;20227;-78
2023/04/19 07:20:08;;;;;;;1.93;1.30;;;7.60;97.80;;;;;;5008019;28;20233;-78
2023/04/19 07:22:35;;;;;;;1.60;1.03;;;7.60;98.20;;;;;;5001337;28;20259;-78
2023/04/19 07:25:02;;;;;;;2.90;2.30;;;7.60;97.80;;;;;;5010468;28;20228;-77
2023/04/19 07:27:29;;;;;;;1.57;0.93;;;7.70;97.80;;;;;;5004385;28;20722;-77
2023/04/19 07:29:55;;;;;;;1.47;0.90;;;7.70;98.00;;;;;;5006703;28;20228;-78
2023/04/19 07:32:22;;;;;;;1.93;1.00;;;7.80;97.90;;;;;;5004888;28;20230;-78
2023/04/19 07:34:50;;;;;;;1.27;0.80;;;7.90;97.60;;;;;;5007192;28;20239;-78
2023/04/19 07:37:17;;;;;;;1.60;0.90;;;8.10;98.20;;;;;;5006813;28;20237;-78
2023/04/19 07:39:43;;;;;;;2.57;1.03;;;8.50;99.10;;;;;;5008155;28;20231;-78
2023/04/19 07:42:10;;;;;;;1.73;1.10;;;8.90;97.50;;;;;;5004419;28;20696;-78
2023/04/19 07:44:37;;;;;;;1.70;1.10;;;9.50;96.70;;;;;;5008683;28;20229;-78
2023/04/19 07:47:04;;;;;;;2.23;0.90;;;10.10;96.80;;;;;;5007666;28;20223;-78
2023/04/19 07:49:33;;;;;;;1.30;0.70;;;10.60;95.90;;;;;;5005743;28;20224;-78
2023/04/19 07:52:01;;;;;;;1.83;1.00;;;11.20;96.30;;;;;;5008701;28;20228;-78
2023/04/19 07:54:27;;;;;;;1.43;0.80;;;11.70;94.80;;;;;;5005165;28;20651;-78
2023/04/19 07:56:54;;;;;;;1.00;0.77;;;12.20;93.40;;;;;;5009249;28;20287;-78
2023/04/19 07:59:21;;;;;;;2.07;1.00;;;12.60;92.20;;;;;;5008341;28;20240;-77
2023/04/19 08:01:48;;;;;;;1.10;0.60;;;13.00;92.40;;;;;;5005438;28;20226;-78
2023/04/19 08:04:16;;;;;;;1.13;0.87;;;13.30;90.90;;;;;;5005697;28;20736;-78
2023/04/19 08:06:44;;;;;;;3.83;0.87;;;13.50;87.40;;;;;;5008847;28;20265;-78
2023/04/19 08:09:11;;;;;;;1.47;1.00;;;13.70;90.10;;;;;;5008942;28;20230;-78
2023/04/19 08:11:38;;;;;;;2.47;0.77;;;13.90;88.10;;;;;;5004954;28;20253;-78
2023/04/19 08:14:05;;;;;;;0.97;0.67;;;14.20;89.70;;;;;;5010045;28;20448;-78
2023/04/19 08:16:32;;;;;;;1.27;0.90;;;14.50;87.40;;;;;;5001076;28;20253;-78
2023/04/19 08:18:58;;;;;;;2.17;0.90;;;14.90;88.70;;;;;;5004350;28;20230;-78
2023/04/19 08:21:25;;;;;;;1.13;0.73;;;15.30;89.00;;;;;;5007049;28;20242;-78
2023/04/19 08:23:52;;;;;;;1.10;0.80;;;15.70;85.10;;;;;;5008974;28;20217;-78
2023/04/19 08:26:21;;;;;;;0.80;0.80;;;16.10;81.50;;;;;;5004606;28;20969;-78
2023/04/19 08:28:49;;;;;;;2.40;1.10;;;16.30;80.70;;;;;;5008352;28;20308;-78
2023/04/19 08:31:16;;;;;;;1.80;0.80;;;16.50;79.80;;;;;;5009056;28;20221;-78
2023/04/19 08:33:43;;;;;;;2.47;1.00;;;16.60;77.40;;;;;;5006857;28;20224;-78
2023/04/19 08:36:09;;;;;;;1.33;0.90;;;16.60;77.60;;;;;;5007436;28;20237;-78
2023/04/19 08:38:37;;;;;;;2.40;0.83;;;16.70;77.60;;;;;;5006338;28;20611;-78
2023/04/19 08:41:04;;;;;;;2.50;0.90;;;16.60;74.00;;;;;;5008664;28;20226;-78
2023/04/19 08:43:36;;;;;;;3.97;0.73;;;16.60;74.10;;;;;;5007207;28;20232;-78
2023/04/19 08:46:04;;;;;;;3.00;0.97;;;16.60;73.80;;;;;;5009584;28;20247;-78
2023/04/19 08:48:34;;;;;;;1.70;0.87;;;16.80;74.80;;;;;;5003921;28;20600;-78
2023/04/19 08:51:01;;;;;;;5.60;1.10;;;16.90;74.20;;;;;;5023886;28;20239;-78
2023/04/19 08:53:29;;;;;;;3.30;1.03;;;17.00;66.40;;;;;;5004298;28;20679;-78
2023/04/19 08:55:58;;;;;;;2.83;0.80;;;16.90;67.30;;;;;;5005138;28;20295;-78
2023/04/19 08:58:25;;;;;;;3.27;0.97;;;16.90;70.90;;;;;;5000849;28;20717;-78
2023/04/19 09:00:53;;;;;;;3.87;1.33;;;17.00;71.30;;;;;;5008241;28;20227;-78
2023/04/19 09:03:20;;;;;;;1.50;1.30;;;17.20;67.90;;;;;;5003362;28;20228;-78
2023/04/19 09:05:46;;;;;;;2.50;1.10;;;17.40;66.40;;;;;;5009748;28;20232;-78
2023/04/19 09:08:25;;;;;;;2.40;1.10;;;17.50;64.50;;;;;;5008490;28;20304;-78
2023/04/19 09:10:56;;;;;;;2.70;1.50;;;17.40;61.50;;;;;;5001696;28;20295;-78
2023/04/19 09:13:23;;;;;;;2.10;1.10;;;17.40;63.20;;;;;;5015184;28;20224;-78
2023/04/19 09:15:50;;;;;;;2.97;1.30;;;17.40;63.70;;;;;;5009086;28;20260;-78
2023/04/19 09:18:18;;;;;;;1.57;1.10;;;17.40;61.30;;;;;;5002648;28;20256;-78
2023/04/19 09:20:45;;;;;;;1.73;0.90;;;17.40;59.80;;;;;;5009151;28;20236;-78
2023/04/19 09:23:15;;;;;;;2.20;1.17;;;17.30;58.90;;;;;;5008320;28;20243;-78
2023/04/19 09:25:53;;;;;;;1.73;1.17;;;17.20;59.10;;;;;;5006596;28;20228;-79
2023/04/19 09:28:20;;;;;;;2.70;1.40;;;17.20;59.40;;;;;;5004710;28;20248;-78
2023/04/19 09:30:47;;;;;;;2.50;1.27;;;17.20;62.90;;;;;;5004708;28;20246;-78
2023/04/19 09:33:14;;;;;;;3.40;1.50;;;17.30;60.20;;;;;;5006382;28;20225;-79
2023/04/19 09:35:43;;;;;;;5.13;1.40;;;17.50;61.40;;;;;;5006885;28;20248;-78
2023/04/19 09:38:10;;;;;;;2.30;1.10;;;17.80;59.70;;;;;;5009225;28;20224;-78
2023/04/19 09:40:38;;;;;;;2.47;1.20;;;18.00;57.90;;;;;;5007253;28;20239;-78
2023/04/19 09:43:05;;;;;;;2.77;1.67;;;18.10;57.50;;;;;;5011073;28;20308;-78
2023/04/19 09:45:40;;;;;;;2.53;1.27;;;18.20;57.40;;;;;;5010177;28;20632;-78
2023/04/19 09:48:08;;;;;;;3.72;1.52;;;18.20;57.50;;;;;;5009848;28;20225;-79
2023/04/19 09:50:35;;;;;;;3.10;1.23;;;18.30;56.80;;;;;;5012402;28;20225;-78
2023/04/19 09:53:03;;;;;;;5.23;1.87;;;18.40;56.10;;;;;;5012380;28;20222;-78
2023/04/19 09:55:31;;;;;;;3.57;1.63;;;18.30;52.90;;;;;;5007933;28;20226;-78
2023/04/19 09:57:57;;;;;;;2.43;1.33;;;18.20;52.10;;;;;;5008398;28;20233;-78
2023/04/19 10:00:24;;;;;;;2.17;1.50;;;18.10;53.30;;;;;;5007461;28;20631;-78
2023/04/19 10:02:56;;;;;;;2.77;1.40;;;18.10;53.40;;;;;;5011279;28;20273;-78
2023/04/19 10:05:24;;;;;;;2.63;1.37;;;18.10;53.80;;;;;;5004479;28;20902;-78
2023/04/19 10:07:52;;;;;;;2.03;1.40;;;18.20;52.80;;;;;;5010004;28;20291;-79
2023/04/19 10:10:21;;;;;;;3.27;1.57;;;18.30;53.20;;;;;;5012058;28;20301;-78
2023/04/19 10:12:51;;;;;;;2.58;1.60;;;18.50;53.20;;;;;;5007549;28;20659;-78
2023/04/19 10:15:22;;;;;;;2.92;1.70;;;18.60;53.80;;;;;;5006995;28;20221;-78
2023/04/19 10:17:49;;;;;;;3.60;1.58;;;18.70;52.70;;;;;;5008787;28;20280;-78
2023/04/19 10:20:21;;;;;;;2.20;1.30;;;18.80;53.10;;;;;;5011537;28;20228;-78
2023/04/19 10:22:49;;;;;;;4.47;1.50;;;18.80;51.10;;;;;;5010737;28;20265;-78
2023/04/19 10:25:16;;;;;;;1.73;1.20;;;18.80;49.20;;;;;;5011137;28;20225;-78
2023/04/19 10:27:47;;;;;;;1.52;1.42;;;18.70;48.60;;;;;;5010888;28;20260;-79
2023/04/19 10:30:18;;;;;;;5.30;2.00;;;18.60;46.90;;;;;;5011438;28;20226;-78
2023/04/19 10:32:52;;;;;;;2.13;1.50;;;18.50;46.80;;;;;;5022590;28;20229;-78
2023/04/19 10:35:20;;;;;;;2.87;1.87;;;18.20;46.20;;;;;;5009360;28;20251;-78
2023/04/19 10:38:07;;;;;;;2.97;1.87;;;18.00;47.60;;;;;;5011909;28;20285;-78
2023/04/19 10:40:59;;;;;;;4.50;1.93;;;17.80;46.20;;;;;;5008495;28;20242;-78
2023/04/19 10:43:28;;;;;;;5.27;1.70;;;17.70;46.60;;;;;;5001530;28;20228;-78
2023/04/19 10:45:55;;;;;;;1.70;1.10;;;17.70;46.20;;;;;;5007309;28;20263;-78
2023/04/19 10:48:36;;;;;;;2.70;1.70;;;17.70;46.80;;;;;;5006789;28;20225;-78
2023/04/19 10:51:06;;;;;;;3.53;1.70;;;17.60;46.10;;;;;;5009499;28;20669;-78
2023/04/19 10:53:51;;;;;;;2.40;1.60;;;17.50;44.50;;;;;;5007215;28;20236;-78
2023/04/19 10:56:19;;;;;;;2.40;1.53;;;17.30;41.40;;;;;;5009446;28;20554;-78
2023/04/19 10:59:21;;;;;;;5.37;1.90;;;17.10;44.30;;;;;;5007897;28;20236;-78
2023/04/19 11:01:50;;;;;;;3.97;1.70;;;17.00;44.90;;;;;;5017362;28;20858;-78
2023/04/19 11:04:18;;;;;;;2.53;1.80;;;17.00;44.40;;;;;;5007717;28;20818;-79
2023/04/19 11:07:00;;;;;;;3.70;1.60;;;17.00;44.70;;;;;;5001168;28;20222;-79
2023/04/19 11:09:29;;;;;;;4.33;1.63;;;16.90;43.80;;;;;;5002560;28;20229;-79
2023/04/19 11:11:59;;;;;;;3.43;1.70;;;16.80;44.30;;;;;;5003096;28;20221;-78
2023/04/19 11:14:31;;;;;;;2.83;1.73;;;16.80;45.50;;;;;;5002003;28;20228;-78
2023/04/19 11:16:58;;;;;;;3.90;1.50;;;16.80;45.30;;;;;;5010565;28;20236;-79
2023/04/19 11:19:25;;;;;;;3.77;1.80;;;16.90;46.00;;;;;;5003710;28;20299;-79
2023/04/19 11:21:52;;;;;;;2.23;1.50;;;17.00;46.80;;;;;;5010062;28;20225;-79
2023/04/19 11:24:19;;;;;;;3.10;1.63;;;17.20;46.50;;;;;;5008437;28;20268;-78
2023/04/19 11:26:47;;;;;;;3.15;1.58;;;17.30;45.90;;;;;;5009905;28;20216;-78
2023/04/19 11:29:14;;;;;;;2.50;1.30;;;17.40;45.20;;;;;;5006901;28;20233;-79
2023/04/19 11:31:45;;;;;;;3.70;1.50;;;17.50;44.80;;;;;;5006300;28;20606;-79
2023/04/19 11:34:11;;;;;;;2.27;1.50;;;17.60;44.90;;;;;;5007551;28;20226;-78
2023/04/19 11:36:47;;;;;;;3.13;1.50;;;17.60;45.90;;;;;;5005429;28;20316;-79
2023/04/19 11:39:15;;;;;;;4.23;1.70;;;17.80;46.10;;;;;;5005851;28;20287;-79
2023/04/19 11:41:41;;;;;;;3.23;1.67;;;17.90;45.60;;;;;;5005878;28;20968;-79
2023/04/19 11:44:13;;;;;;;3.47;1.50;;;18.00;44.70;;;;;;5006141;28;20234;-78
2023/04/19 11:46:40;;;;;;;2.80;1.47;;;18.10;43.50;;;;;;5006233;28;20248;-78
2023/04/19 11:49:08;;;;;;;2.40;1.87;;;18.10;42.70;;;;;;5008639;28;20236;-78
2023/04/19 11:51:35;;;;;;;4.43;1.87;;;18.00;41.80;;;;;;5009311;28;20243;-78
2023/04/19 11:54:01;;;;;;;2.67;1.60;;;17.80;40.70;;;;;;5006836;28;20228;-78
2023/04/19 11:56:28;;;;;;;3.37;1.40;;;17.40;40.70;;;;;;5003988;28;20872;-78
2023/04/19 11:58:58;;;;;;;2.77;1.60;;;17.20;41.80;;;;;;4996662;28;20283;-78
2023/04/19 12:01:24;;;;;;;5.87;2.10;;;16.90;40.40;;;;;;5008176;28;20232;-79
2023/04/19 12:03:53;;;;;;;1.87;1.50;;;16.70;40.80;;;;;;5008709;28;20221;-78
2023/04/19 12:06:24;;;;;;;2.93;1.83;;;16.40;40.70;;;;;;5009061;28;20217;-79
2023/04/19 12:08:52;;;;;;;2.30;1.50;;;16.10;40.60;;;;;;5006438;28;20211;-78
2023/04/19 12:11:22;;;;;;;3.40;1.70;;;16.00;41.90;;;;;;5009664;28;20226;-78
2023/04/19 12:13:49;;;;;;;2.70;1.57;;;15.70;39.70;;;;;;5010280;28;20220;-78
2023/04/19 12:16:27;;;;;;;3.43;1.50;;;15.60;40.00;;;;;;5008647;28;20605;-78
2023/04/19 12:18:54;;;;;;;3.27;1.87;;;15.40;40.00;;;;;;5005982;28;20260;-78
2023/04/19 12:21:26;;;;;;;2.23;1.67;;;15.20;41.10;;;;;;5006530;28;20233;-78
2023/04/19 12:23:57;;;;;;;2.80;1.50;;;15.10;40.90;;;;;;5009198;28;20239;-79
2023/04/19 12:26:24;;;;;;;2.83;1.40;;;15.00;41.20;;;;;;5008158;28;20232;-78
2023/04/19 12:28:50;;;;;;;3.47;1.43;;;14.80;42.00;;;;;;5003889;28;20729;-79
2023/04/19 12:31:19;;;;;;;2.53;1.70;;;14.70;42.60;;;;;;5007596;28;20221;-78
2023/04/19 12:33:46;;;;;;;1.67;1.33;;;14.60;42.30;;;;;;5009118;28;20231;-80
2023/04/19 12:36:13;;;;;;;12.23;1.87;;;14.50;43.20;;;;;;5007383;28;20289;-79
2023/04/19 12:38:41;;;;;;;8.13;1.50;;;14.50;43.50;;;;;;5009227;28;20235;-78
2023/04/19 12:41:08;;;;;;;5.60;1.60;;;14.40;43.20;;;;;;5008540;28;20789;-78
2023/04/19 12:43:35;;;;;;;3.37;1.73;;;14.20;42.70;;;;;;5005671;28;20600;-78
2023/04/19 12:46:01;;;;;;;2.60;1.33;;;14.20;44.40;;;;;;5001917;28;20630;-78
2023/04/19 12:48:28;;;;;;;2.03;1.57;;;14.10;44.40;;;;;;5008803;28;20232;-78
2023/04/19 12:50:55;;;;;;;2.23;1.43;;;14.10;44.30;;;;;;5008876;28;20227;-78
2023/04/19 12:53:23;;;;;;;3.00;1.53;;;14.10;45.40;;;;;;5005254;28;20244;-79
2023/04/19 12:55:51;;;;;;;3.57;1.57;;;14.20;45.60;;;;;;5006858;28;20236;-79
2023/04/19 12:58:17;;;;;;;5.27;1.90;;;14.30;46.40;;;;;;5007253;28;20238;-79
2023/04/19 13:00:44;;;;;;;3.30;1.70;;;14.40;45.60;;;;;;5006906;28;20247;-78